sensor_id;sensor_type;location;lat;lon;timestamp;pressure;altitude;pressure_sealevel;temperature
45034;BMP280;30771;47.988;-4.186;2023-02-28T06:41:36;101389.75;;;3.05
45034;BMP280;30771;47.988;-4.186;2023-02-28T06:44:01;101377.38;;;2.98
45034;BMP280;30771;47.988;-4.186;2023-02-28T06:46:27;101361.28;;;2.93
45034;BMP280;30771;47.988;-4.186;2023-02-28T06:48:52;101352.13;;;2.89
45034;BMP280;30771;47.988;-4.186;2023-02-28T06:51:18;101341.25;;;2.84
45034;BMP280;30771;47.988;-4.186;2023-02-28T06:53:43;101326.84;;;2.80
45034;BMP280;30771;47.988;-4.186;2023-02-28T06:56:10;101327.78;;;2.78
45034;BMP280;30771;47.988;-4.186;2023-02-28T06:58:36;101316.47;;;2.80
45034;BMP280;30771;47.988;-4.186;2023-02-28T07:01:01;101304.16;;;2.82
45034;BMP280;30771;47.988;-4.186;2023-02-28T07:03:27;101298.56;;;2.86
45034;BMP280;30771;47.988;-4.186;2023-02-28T07:05:52;101290.41;;;2.91
45034;BMP280;30771;47.988;-4.186;2023-02-28T07:08:17;101300.41;;;2.95
45034;BMP280;30771;47.988;-4.186;2023-02-28T07:10:42;101298.25;;;3.00
45034;BMP280;30771;47.988;-4.186;2023-02-28T07:13:07;101311.72;;;3.05
45034;BMP280;30771;47.988;-4.186;2023-02-28T07:15:33;101314.22;;;3.07
45034;BMP280;30771;47.988;-4.186;2023-02-28T07:17:58;101321.03;;;3.08
45034;BMP280;30771;47.988;-4.186;2023-02-28T07:20:23;101318.91;;;3.13
45034;BMP280;30771;47.988;-4.186;2023-02-28T07:22:49;101322.09;;;3.16
45034;BMP280;30771;47.988;-4.186;2023-02-28T07:25:14;101330.47;;;3.20
45034;BMP280;30771;47.988;-4.186;2023-02-28T07:27:39;101338.00;;;3.23
45034;BMP280;30771;47.988;-4.186;2023-02-28T07:30:05;101344.59;;;3.27
45034;BMP280;30771;47.988;-4.186;2023-02-28T07:32:30;101350.25;;;3.32
45034;BMP280;30771;47.988;-4.186;2023-02-28T07:34:55;101360.41;;;3.35
45034;BMP280;30771;47.988;-4.186;2023-02-28T07:37:21;101363.47;;;3.40
45034;BMP280;30771;47.988;-4.186;2023-02-28T07:39:46;101370.22;;;3.42
45034;BMP280;30771;47.988;-4.186;2023-02-28T07:42:12;101380.22;;;3.47
45034;BMP280;30771;47.988;-4.186;2023-02-28T07:44:37;101382.56;;;3.50
45034;BMP280;30771;47.988;-4.186;2023-02-28T07:47:03;101397.81;;;3.55
45034;BMP280;30771;47.988;-4.186;2023-02-28T07:49:28;101403.72;;;3.57
45034;BMP280;30771;47.988;-4.186;2023-02-28T07:51:53;101412.81;;;3.62
45034;BMP280;30771;47.988;-4.186;2023-02-28T07:54:18;101427.13;;;3.68
45034;BMP280;30771;47.988;-4.186;2023-02-28T07:56:43;101442.19;;;3.74
45034;BMP280;30771;47.988;-4.186;2023-02-28T07:59:08;101464.47;;;3.78
45034;BMP280;30771;47.988;-4.186;2023-02-28T08:01:33;101487.53;;;3.82
45034;BMP280;30771;47.988;-4.186;2023-02-28T08:03:59;101499.22;;;3.88
45034;BMP280;30771;47.988;-4.186;2023-02-28T08:06:24;101516.91;;;3.94
45034;BMP280;30771;47.988;-4.186;2023-02-28T08:08:50;101537.28;;;4.00
45034;BMP280;30771;47.988;-4.186;2023-02-28T08:11:15;101554.91;;;4.07
45034;BMP280;30771;47.988;-4.186;2023-02-28T08:13:41;101581.13;;;4.15
45034;BMP280;30771;47.988;-4.186;2023-02-28T08:16:06;101587.38;;;4.24
45034;BMP280;30771;47.988;-4.186;2023-02-28T08:18:32;101604.88;;;4.33
45034;BMP280;30771;47.988;-4.186;2023-02-28T08:20:57;101631.97;;;4.42
45034;BMP280;30771;47.988;-4.186;2023-02-28T08:23:22;101641.63;;;4.51
45034;BMP280;30771;47.988;-4.186;2023-02-28T08:25:54;101657.31;;;4.60
45034;BMP280;30771;47.988;-4.186;2023-02-28T08:28:19;101674.81;;;4.69
45034;BMP280;30771;47.988;-4.186;2023-02-28T08:30:44;101686.28;;;4.78
45034;BMP280;30771;47.988;-4.186;2023-02-28T08:33:10;101695.94;;;4.87
45034;BMP280;30771;47.988;-4.186;2023-02-28T08:35:35;101719.47;;;4.96
45034;BMP280;30771;47.988;-4.186;2023-02-28T08:38:01;101730.25;;;5.03
45034;BMP280;30771;47.988;-4.186;2023-02-28T08:40:26;101745.25;;;5.11
45034;BMP280;30771;47.988;-4.186;2023-02-28T08:42:51;101746.97;;;5.21
45034;BMP280;30771;47.988;-4.186;2023-02-28T08:45:16;101765.78;;;5.25
45034;BMP280;30771;47.988;-4.186;2023-02-28T08:47:41;101781.47;;;5.25
45034;BMP280;30771;47.988;-4.186;2023-02-28T08:50:07;101784.38;;;5.31
45034;BMP280;30771;47.988;-4.186;2023-02-28T08:52:32;101788.81;;;5.40
45034;BMP280;30771;47.988;-4.186;2023-02-28T08:54:58;101789.25;;;5.45
45034;BMP280;30771;47.988;-4.186;2023-02-28T08:57:23;101798.50;;;5.49
45034;BMP280;30771;47.988;-4.186;2023-02-28T08:59:48;101803.50;;;5.52
45034;BMP280;30771;47.988;-4.186;2023-02-28T09:02:13;101809.25;;;5.56
45034;BMP280;30771;47.988;-4.186;2023-02-28T09:04:39;101817.13;;;5.65
45034;BMP280;30771;47.988;-4.186;2023-02-28T09:07:04;101811.94;;;5.75
45034;BMP280;30771;47.988;-4.186;2023-02-28T09:09:29;101809.75;;;5.80
45034;BMP280;30771;47.988;-4.186;2023-02-28T09:11:57;101809.34;;;5.84
45034;BMP280;30771;47.988;-4.186;2023-02-28T09:14:22;101811.31;;;5.92
45034;BMP280;30771;47.988;-4.186;2023-02-28T09:16:48;101805.84;;;6.05
45034;BMP280;30771;47.988;-4.186;2023-02-28T09:19:13;101808.34;;;6.16
45034;BMP280;30771;47.988;-4.186;2023-02-28T09:21:38;101815.09;;;6.18
45034;BMP280;30771;47.988;-4.186;2023-02-28T09:24:03;101817.31;;;6.23
45034;BMP280;30771;47.988;-4.186;2023-02-28T09:26:28;101827.91;;;6.31
45034;BMP280;30771;47.988;-4.186;2023-02-28T09:28:54;101823.09;;;6.36
45034;BMP280;30771;47.988;-4.186;2023-02-28T09:31:21;101824.22;;;6.43
45034;BMP280;30771;47.988;-4.186;2023-02-28T09:33:48;101829.88;;;6.48
45034;BMP280;30771;47.988;-4.186;2023-02-28T09:36:13;101839.75;;;6.54
45034;BMP280;30771;47.988;-4.186;2023-02-28T09:38:38;101837.44;;;6.60
45034;BMP280;30771;47.988;-4.186;2023-02-28T09:41:08;101845.84;;;6.64
45034;BMP280;30771;47.988;-4.186;2023-02-28T09:43:35;101840.47;;;6.75
45034;BMP280;30771;47.988;-4.186;2023-02-28T09:48:29;101834.38;;;6.94
45034;BMP280;30771;47.988;-4.186;2023-02-28T09:51:00;101836.72;;;6.97
45034;BMP280;30771;47.988;-4.186;2023-02-28T09:53:28;101838.50;;;7.06
45034;BMP280;30771;47.988;-4.186;2023-02-28T09:55:57;101827.16;;;7.15
45034;BMP280;30771;47.988;-4.186;2023-02-28T09:58:26;101831.81;;;7.30
45034;BMP280;30771;47.988;-4.186;2023-02-28T10:00:58;101818.13;;;7.46
45034;BMP280;30771;47.988;-4.186;2023-02-28T10:08:19;101853.69;;;7.58
45034;BMP280;30771;47.988;-4.186;2023-02-28T10:10:50;101868.41;;;7.59
45034;BMP280;30771;47.988;-4.186;2023-02-28T10:13:24;101872.88;;;7.76
45034;BMP280;30771;47.988;-4.186;2023-02-28T10:15:52;101883.63;;;7.83
45034;BMP280;30771;47.988;-4.186;2023-02-28T10:18:21;101880.16;;;7.92
45034;BMP280;30771;47.988;-4.186;2023-02-28T10:20:48;101889.91;;;7.99
45034;BMP280;30771;47.988;-4.186;2023-02-28T10:23:18;101909.78;;;8.02
45034;BMP280;30771;47.988;-4.186;2023-02-28T10:25:45;101907.59;;;8.15
45034;BMP280;30771;47.988;-4.186;2023-02-28T10:28:13;101914.50;;;8.16
45034;BMP280;30771;47.988;-4.186;2023-02-28T10:30:43;101932.38;;;8.12
45034;BMP280;30771;47.988;-4.186;2023-02-28T10:33:15;101934.66;;;8.15
45034;BMP280;30771;47.988;-4.186;2023-02-28T10:35:42;101941.16;;;8.21
45034;BMP280;30771;47.988;-4.186;2023-02-28T10:38:10;101916.38;;;8.33
45034;BMP280;30771;47.988;-4.186;2023-02-28T10:40:38;101934.00;;;8.41
45034;BMP280;30771;47.988;-4.186;2023-02-28T10:43:05;101946.16;;;8.42
45034;BMP280;30771;47.988;-4.186;2023-02-28T10:45:34;101944.56;;;8.31
45034;BMP280;30771;47.988;-4.186;2023-02-28T10:55:42;101925.22;;;8.67
45034;BMP280;30771;47.988;-4.186;2023-02-28T10:59:23;101924.19;;;8.78
45034;BMP280;30771;47.988;-4.186;2023-02-28T11:01:02;101913.69;;;8.78
45034;BMP280;30771;47.988;-4.186;2023-02-28T11:03:31;101914.19;;;8.81
45034;BMP280;30771;47.988;-4.186;2023-02-28T11:05:57;101916.91;;;8.89
45034;BMP280;30771;47.988;-4.186;2023-02-28T11:08:23;101918.31;;;9.01
45034;BMP280;30771;47.988;-4.186;2023-02-28T11:10:54;101906.84;;;9.28
45034;BMP280;30771;47.988;-4.186;2023-02-28T11:13:20;101908.75;;;9.44
45034;BMP280;30771;47.988;-4.186;2023-02-28T11:15:50;101909.72;;;9.43
45034;BMP280;30771;47.988;-4.186;2023-02-28T11:18:21;101915.56;;;9.54
45034;BMP280;30771;47.988;-4.186;2023-02-28T11:20:50;101916.22;;;9.56
45034;BMP280;30771;47.988;-4.186;2023-02-28T11:23:16;101918.47;;;9.51
45034;BMP280;30771;47.988;-4.186;2023-02-28T11:25:45;101914.56;;;9.55
45034;BMP280;30771;47.988;-4.186;2023-02-28T11:28:33;101908.81;;;9.60
45034;BMP280;30771;47.988;-4.186;2023-02-28T11:31:14;101914.44;;;9.57
45034;BMP280;30771;47.988;-4.186;2023-02-28T11:33:41;101910.91;;;9.48
45034;BMP280;30771;47.988;-4.186;2023-02-28T11:36:11;101923.56;;;9.53
45034;BMP280;30771;47.988;-4.186;2023-02-28T11:38:36;101924.91;;;9.49
45034;BMP280;30771;47.988;-4.186;2023-02-28T11:41:05;101909.22;;;9.39
45034;BMP280;30771;47.988;-4.186;2023-02-28T11:46:43;101910.84;;;9.14
45034;BMP280;30771;47.988;-4.186;2023-02-28T11:56:38;101879.47;;;9.39
45034;BMP280;30771;47.988;-4.186;2023-02-28T12:04:24;101874.84;;;9.66
45034;BMP280;30771;47.988;-4.186;2023-02-28T12:06:56;101861.75;;;9.82
45034;BMP280;30771;47.988;-4.186;2023-02-28T12:22:32;101877.81;;;9.38
45034;BMP280;30771;47.988;-4.186;2023-02-28T12:27:44;101869.53;;;9.24
45034;BMP280;30771;47.988;-4.186;2023-02-28T12:32:39;101863.19;;;9.09
45034;BMP280;30771;47.988;-4.186;2023-02-28T12:37:36;101842.72;;;9.47
45034;BMP280;30771;47.988;-4.186;2023-02-28T12:40:03;101839.84;;;9.66
45034;BMP280;30771;47.988;-4.186;2023-02-28T12:42:30;101839.38;;;9.78
45034;BMP280;30771;47.988;-4.186;2023-02-28T12:47:38;101850.72;;;9.87
45034;BMP280;30771;47.988;-4.186;2023-02-28T12:55:17;101836.16;;;10.16
45034;BMP280;30771;47.988;-4.186;2023-02-28T13:00:20;101830.25;;;10.23
45034;BMP280;30771;47.988;-4.186;2023-02-28T13:03:06;101834.16;;;10.18
45034;BMP280;30771;47.988;-4.186;2023-02-28T13:05:53;101827.09;;;10.27
45034;BMP280;30771;47.988;-4.186;2023-02-28T13:08:39;101818.06;;;10.46
45034;BMP280;30771;47.988;-4.186;2023-02-28T13:11:22;101796.50;;;10.66
45034;BMP280;30771;47.988;-4.186;2023-02-28T13:13:48;101795.81;;;10.72
45034;BMP280;30771;47.988;-4.186;2023-02-28T13:16:13;101797.66;;;10.64
45034;BMP280;30771;47.988;-4.186;2023-02-28T13:18:45;101796.03;;;10.55
45034;BMP280;30771;47.988;-4.186;2023-02-28T13:26:16;101814.44;;;10.23
45034;BMP280;30771;47.988;-4.186;2023-02-28T13:31:12;101829.84;;;9.85
45034;BMP280;30771;47.988;-4.186;2023-02-28T13:46:26;101784.75;;;10.85
45034;BMP280;30771;47.988;-4.186;2023-02-28T13:48:51;101800.44;;;10.54
45034;BMP280;30771;47.988;-4.186;2023-02-28T13:51:27;101804.41;;;10.26
45034;BMP280;30771;47.988;-4.186;2023-02-28T13:54:00;101798.78;;;10.21
45034;BMP280;30771;47.988;-4.186;2023-02-28T13:56:34;101801.44;;;10.21
45034;BMP280;30771;47.988;-4.186;2023-02-28T13:59:06;101798.13;;;10.19
45034;BMP280;30771;47.988;-4.186;2023-02-28T14:07:03;101787.81;;;10.26
45034;BMP280;30771;47.988;-4.186;2023-02-28T14:11:53;101777.72;;;10.53
45034;BMP280;30771;47.988;-4.186;2023-02-28T14:17:03;101776.09;;;10.52
45034;BMP280;30771;47.988;-4.186;2023-02-28T14:19:29;101771.94;;;10.74
45034;BMP280;30771;47.988;-4.186;2023-02-28T14:32:35;101766.72;;;10.34
45034;BMP280;30771;47.988;-4.186;2023-02-28T14:37:44;101758.44;;;10.69
45034;BMP280;30771;47.988;-4.186;2023-02-28T14:42:57;101747.16;;;10.99
45034;BMP280;30771;47.988;-4.186;2023-02-28T14:45:23;101767.25;;;10.92
45034;BMP280;30771;47.988;-4.186;2023-02-28T14:47:51;101760.09;;;10.70
45034;BMP280;30771;47.988;-4.186;2023-02-28T14:50:17;101750.41;;;10.62
45034;BMP280;30771;47.988;-4.186;2023-02-28T14:52:43;101746.78;;;10.55
45034;BMP280;30771;47.988;-4.186;2023-02-28T14:55:16;101738.59;;;10.42
45034;BMP280;30771;47.988;-4.186;2023-02-28T14:57:50;101726.88;;;10.45
45034;BMP280;30771;47.988;-4.186;2023-02-28T15:00:18;101731.00;;;10.39
45034;BMP280;30771;47.988;-4.186;2023-02-28T15:02:45;101727.91;;;10.28
45034;BMP280;30771;47.988;-4.186;2023-02-28T15:07:39;101725.09;;;10.21
45034;BMP280;30771;47.988;-4.186;2023-02-28T15:12:32;101713.91;;;10.35
45034;BMP280;30771;47.988;-4.186;2023-02-28T15:14:57;101713.25;;;10.33
45034;BMP280;30771;47.988;-4.186;2023-02-28T15:17:23;101705.34;;;10.41
45034;BMP280;30771;47.988;-4.186;2023-02-28T15:19:50;101705.81;;;10.37
45034;BMP280;30771;47.988;-4.186;2023-02-28T15:22:17;101700.72;;;10.35
45034;BMP280;30771;47.988;-4.186;2023-02-28T15:24:44;101689.22;;;10.28
45034;BMP280;30771;47.988;-4.186;2023-02-28T15:27:14;101700.28;;;10.15
45034;BMP280;30771;47.988;-4.186;2023-02-28T15:29:44;101697.50;;;9.93
45034;BMP280;30771;47.988;-4.186;2023-02-28T15:32:20;101662.63;;;9.67
45034;BMP280;30771;47.988;-4.186;2023-02-28T15:34:46;101639.59;;;9.45
45034;BMP280;30771;47.988;-4.186;2023-02-28T15:37:25;101605.72;;;9.34
45034;BMP280;30771;47.988;-4.186;2023-02-28T15:39:51;101580.59;;;9.31
45034;BMP280;30771;47.988;-4.186;2023-02-28T15:42:18;101570.22;;;9.38
45034;BMP280;30771;47.988;-4.186;2023-02-28T15:44:43;101578.81;;;9.40
45034;BMP280;30771;47.988;-4.186;2023-02-28T15:47:27;101572.38;;;9.42
45034;BMP280;30771;47.988;-4.186;2023-02-28T15:52:20;101583.72;;;9.35
45034;BMP280;30771;47.988;-4.186;2023-02-28T15:54:46;101591.75;;;9.25
45034;BMP280;30771;47.988;-4.186;2023-02-28T15:57:25;101582.34;;;9.14
45034;BMP280;30771;47.988;-4.186;2023-02-28T15:59:58;101585.13;;;9.13
45034;BMP280;30771;47.988;-4.186;2023-02-28T16:02:32;101565.59;;;9.07
45034;BMP280;30771;47.988;-4.186;2023-02-28T16:04:58;101564.09;;;8.97
45034;BMP280;30771;47.988;-4.186;2023-02-28T16:07:24;101546.97;;;8.85
45034;BMP280;30771;47.988;-4.186;2023-02-28T16:09:50;101536.97;;;8.80
45034;BMP280;30771;47.988;-4.186;2023-02-28T16:12:15;101529.75;;;8.82
45034;BMP280;30771;47.988;-4.186;2023-02-28T16:14:40;101515.97;;;8.80
45034;BMP280;30771;47.988;-4.186;2023-02-28T16:19:49;101498.25;;;8.82
45034;BMP280;30771;47.988;-4.186;2023-02-28T16:22:14;101505.94;;;8.84
45034;BMP280;30771;47.988;-4.186;2023-02-28T16:24:39;101510.41;;;8.83
45034;BMP280;30771;47.988;-4.186;2023-02-28T16:27:05;101530.22;;;8.78
45034;BMP280;30771;47.988;-4.186;2023-02-28T16:29:31;101526.78;;;8.77
45034;BMP280;30771;47.988;-4.186;2023-02-28T16:31:56;101536.31;;;8.78
45034;BMP280;30771;47.988;-4.186;2023-02-28T16:34:22;101537.81;;;8.81
45034;BMP280;30771;47.988;-4.186;2023-02-28T16:36:47;101539.25;;;8.75
45034;BMP280;30771;47.988;-4.186;2023-02-28T16:39:13;101510.59;;;8.48
45034;BMP280;30771;47.988;-4.186;2023-02-28T16:41:38;101459.78;;;8.07
45034;BMP280;30771;47.988;-4.186;2023-02-28T16:44:09;101417.34;;;7.78
45034;BMP280;30771;47.988;-4.186;2023-02-28T16:46:35;101361.91;;;7.65
45034;BMP280;30771;47.988;-4.186;2023-02-28T16:49:01;101334.16;;;7.55
45034;BMP280;30771;47.988;-4.186;2023-02-28T16:51:26;101302.00;;;7.44
45034;BMP280;30771;47.988;-4.186;2023-02-28T16:53:51;101277.09;;;7.40
45034;BMP280;30771;47.988;-4.186;2023-02-28T16:56:25;101257.28;;;7.38
45034;BMP280;30771;47.988;-4.186;2023-02-28T16:58:50;101236.63;;;7.35
45034;BMP280;30771;47.988;-4.186;2023-02-28T17:01:16;101226.44;;;7.32
45034;BMP280;30771;47.988;-4.186;2023-02-28T17:03:42;101213.81;;;7.27
45034;BMP280;30771;47.988;-4.186;2023-02-28T17:06:23;101192.41;;;7.24
45034;BMP280;30771;47.988;-4.186;2023-02-28T17:08:49;101181.75;;;7.25
45034;BMP280;30771;47.988;-4.186;2023-02-28T17:11:15;101174.84;;;7.24
45034;BMP280;30771;47.988;-4.186;2023-02-28T17:13:40;101162.88;;;7.22
45034;BMP280;30771;47.988;-4.186;2023-02-28T17:16:05;101155.19;;;7.20
45034;BMP280;30771;47.988;-4.186;2023-02-28T17:18:30;101142.28;;;7.19
45034;BMP280;30771;47.988;-4.186;2023-02-28T17:20:56;101137.81;;;7.19
45034;BMP280;30771;47.988;-4.186;2023-02-28T17:23:21;101124.72;;;7.19
45034;BMP280;30771;47.988;-4.186;2023-02-28T17:25:46;101129.19;;;7.19
45034;BMP280;30771;47.988;-4.186;2023-02-28T17:28:12;101122.13;;;7.19
45034;BMP280;30771;47.988;-4.186;2023-02-28T17:30:37;101128.19;;;7.20
45034;BMP280;30771;47.988;-4.186;2023-02-28T17:33:02;101118.38;;;7.22
45034;BMP280;30771;47.988;-4.186;2023-02-28T17:35:27;101129.66;;;7.22
45034;BMP280;30771;47.988;-4.186;2023-02-28T17:37:52;101131.31;;;7.23
45034;BMP280;30771;47.988;-4.186;2023-02-28T17:40:19;101146.88;;;7.25
45034;BMP280;30771;47.988;-4.186;2023-02-28T17:42:45;101162.75;;;7.23
45034;BMP280;30771;47.988;-4.186;2023-02-28T17:45:10;101162.75;;;7.23
45034;BMP280;30771;47.988;-4.186;2023-02-28T17:47:35;101191.88;;;7.20
45034;BMP280;30771;47.988;-4.186;2023-02-28T17:50:01;101190.38;;;7.18
45034;BMP280;30771;47.988;-4.186;2023-02-28T17:52:26;101195.78;;;7.16
45034;BMP280;30771;47.988;-4.186;2023-02-28T17:54:51;101196.94;;;7.14
45034;BMP280;30771;47.988;-4.186;2023-02-28T17:57:16;101209.38;;;7.12
45034;BMP280;30771;47.988;-4.186;2023-02-28T17:59:42;101214.06;;;7.08
45034;BMP280;30771;47.988;-4.186;2023-02-28T18:02:08;101213.41;;;7.06
45034;BMP280;30771;47.988;-4.186;2023-02-28T18:04:34;101219.78;;;7.04
45034;BMP280;30771;47.988;-4.186;2023-02-28T18:06:59;101209.47;;;7.02
45034;BMP280;30771;47.988;-4.186;2023-02-28T18:09:24;101217.66;;;6.99
45034;BMP280;30771;47.988;-4.186;2023-02-28T18:11:50;101218.59;;;6.98
45034;BMP280;30771;47.988;-4.186;2023-02-28T18:14:16;101229.53;;;6.94
45034;BMP280;30771;47.988;-4.186;2023-02-28T18:16:41;101229.19;;;6.89
45034;BMP280;30771;47.988;-4.186;2023-02-28T18:19:09;101242.88;;;6.83
45034;BMP280;30771;47.988;-4.186;2023-02-28T18:21:34;101252.22;;;6.77
45034;BMP280;30771;47.988;-4.186;2023-02-28T18:23:59;101252.78;;;6.71
45034;BMP280;30771;47.988;-4.186;2023-02-28T18:26:24;101253.22;;;6.67
45034;BMP280;30771;47.988;-4.186;2023-02-28T18:28:49;101250.94;;;6.63
45034;BMP280;30771;47.988;-4.186;2023-02-28T18:31:16;101247.66;;;6.61
45034;BMP280;30771;47.988;-4.186;2023-02-28T18:33:41;101250.56;;;6.58
45034;BMP280;30771;47.988;-4.186;2023-02-28T18:36:07;101227.16;;;6.57
45034;BMP280;30771;47.988;-4.186;2023-02-28T18:38:32;101223.06;;;6.54
45034;BMP280;30771;47.988;-4.186;2023-02-28T18:40:58;101218.16;;;6.51
45034;BMP280;30771;47.988;-4.186;2023-02-28T18:43:24;101200.66;;;6.52
45034;BMP280;30771;47.988;-4.186;2023-02-28T18:45:50;101201.47;;;6.52
45034;BMP280;30771;47.988;-4.186;2023-02-28T18:48:15;101190.66;;;6.47
45034;BMP280;30771;47.988;-4.186;2023-02-28T18:50:40;101182.13;;;6.45
45034;BMP280;30771;47.988;-4.186;2023-02-28T18:53:05;101170.97;;;6.43
45034;BMP280;30771;47.988;-4.186;2023-02-28T18:55:30;101184.22;;;6.42
45034;BMP280;30771;47.988;-4.186;2023-02-28T18:57:56;101180.13;;;6.39
45034;BMP280;30771;47.988;-4.186;2023-02-28T19:00:21;101187.44;;;6.36
45034;BMP280;30771;47.988;-4.186;2023-02-28T19:02:50;101177.28;;;6.33
45034;BMP280;30771;47.988;-4.186;2023-02-28T19:05:16;101167.28;;;6.28
45034;BMP280;30771;47.988;-4.186;2023-02-28T19:07:42;101164.78;;;6.27
45034;BMP280;30771;47.988;-4.186;2023-02-28T19:10:07;101159.88;;;6.24
45034;BMP280;30771;47.988;-4.186;2023-02-28T19:12:36;101139.28;;;6.21
45034;BMP280;30771;47.988;-4.186;2023-02-28T19:15:05;101110.81;;;6.18
45034;BMP280;30771;47.988;-4.186;2023-02-28T19:17:30;101094.47;;;6.16
45034;BMP280;30771;47.988;-4.186;2023-02-28T19:19:55;101089.22;;;6.16
45034;BMP280;30771;47.988;-4.186;2023-02-28T19:22:20;101084.97;;;6.15
45034;BMP280;30771;47.988;-4.186;2023-02-28T19:24:46;101079.88;;;6.13
45034;BMP280;30771;47.988;-4.186;2023-02-28T19:27:11;101070.25;;;6.14
45034;BMP280;30771;47.988;-4.186;2023-02-28T19:29:36;101063.69;;;6.10
45034;BMP280;30771;47.988;-4.186;2023-02-28T19:32:01;101054.91;;;6.11
45034;BMP280;30771;47.988;-4.186;2023-02-28T19:34:27;101050.50;;;6.11
45034;BMP280;30771;47.988;-4.186;2023-02-28T19:36:52;101047.53;;;6.14
45034;BMP280;30771;47.988;-4.186;2023-02-28T19:39:17;101039.56;;;6.16
45034;BMP280;30771;47.988;-4.186;2023-02-28T19:41:42;101038.56;;;6.17
45034;BMP280;30771;47.988;-4.186;2023-02-28T19:44:07;101034.81;;;6.19
45034;BMP280;30771;47.988;-4.186;2023-02-28T19:46:32;101036.03;;;6.25
45034;BMP280;30771;47.988;-4.186;2023-02-28T19:48:58;101036.53;;;6.28
45034;BMP280;30771;47.988;-4.186;2023-02-28T19:51:23;101032.09;;;6.29
45034;BMP280;30771;47.988;-4.186;2023-02-28T19:53:48;101038.97;;;6.30
45034;BMP280;30771;47.988;-4.186;2023-02-28T19:56:13;101022.63;;;6.28
45034;BMP280;30771;47.988;-4.186;2023-02-28T19:58:39;101024.91;;;6.23
45034;BMP280;30771;47.988;-4.186;2023-02-28T20:01:05;101028.94;;;6.17
45034;BMP280;30771;47.988;-4.186;2023-02-28T20:03:30;101016.03;;;6.16
45034;BMP280;30771;47.988;-4.186;2023-02-28T20:06:14;101004.41;;;6.10
45034;BMP280;30771;47.988;-4.186;2023-02-28T20:08:39;100987.38;;;6.06
45034;BMP280;30771;47.988;-4.186;2023-02-28T20:11:05;100983.28;;;6.04
45034;BMP280;30771;47.988;-4.186;2023-02-28T20:13:31;100972.44;;;5.99
45034;BMP280;30771;47.988;-4.186;2023-02-28T20:16:00;100965.91;;;5.95
45034;BMP280;30771;47.988;-4.186;2023-02-28T20:18:25;100951.34;;;5.92
45034;BMP280;30771;47.988;-4.186;2023-02-28T20:20:50;100935.00;;;5.90
45034;BMP280;30771;47.988;-4.186;2023-02-28T20:23:16;100921.78;;;5.92
45034;BMP280;30771;47.988;-4.186;2023-02-28T20:25:41;100915.56;;;5.93
45034;BMP280;30771;47.988;-4.186;2023-02-28T20:28:06;100901.38;;;5.95
45034;BMP280;30771;47.988;-4.186;2023-02-28T20:30:39;100890.75;;;5.97
45034;BMP280;30771;47.988;-4.186;2023-02-28T20:33:04;100882.47;;;6.01
45034;BMP280;30771;47.988;-4.186;2023-02-28T20:35:29;100871.84;;;6.03
45034;BMP280;30771;47.988;-4.186;2023-02-28T20:37:54;100882.16;;;6.12
45034;BMP280;30771;47.988;-4.186;2023-02-28T20:40:20;100875.63;;;6.16
45034;BMP280;30771;47.988;-4.186;2023-02-28T20:42:45;100867.66;;;6.18
45034;BMP280;30771;47.988;-4.186;2023-02-28T20:45:10;100840.50;;;6.19
45034;BMP280;30771;47.988;-4.186;2023-02-28T20:47:35;100822.38;;;6.17
45034;BMP280;30771;47.988;-4.186;2023-02-28T20:50:00;100808.47;;;6.17
45034;BMP280;30771;47.988;-4.186;2023-02-28T20:52:26;100798.03;;;6.17
45034;BMP280;30771;47.988;-4.186;2023-02-28T20:54:51;100779.91;;;6.15
45034;BMP280;30771;47.988;-4.186;2023-02-28T20:57:16;100782.50;;;6.15
45034;BMP280;30771;47.988;-4.186;2023-02-28T20:59:41;100739.03;;;6.14
45034;BMP280;30771;47.988;-4.186;2023-02-28T21:02:06;100722.69;;;6.12
45034;BMP280;30771;47.988;-4.186;2023-02-28T21:04:32;100710.78;;;6.10
45034;BMP280;30771;47.988;-4.186;2023-02-28T21:06:57;100702.28;;;6.08
45034;BMP280;30771;47.988;-4.186;2023-02-28T21:09:22;100686.09;;;6.04
45034;BMP280;30771;47.988;-4.186;2023-02-28T21:11:47;100674.50;;;5.99
45034;BMP280;30771;47.988;-4.186;2023-02-28T21:14:14;100650.66;;;5.94
45034;BMP280;30771;47.988;-4.186;2023-02-28T21:16:39;100646.72;;;5.90
45034;BMP280;30771;47.988;-4.186;2023-02-28T21:19:04;100636.59;;;5.87
45034;BMP280;30771;47.988;-4.186;2023-02-28T21:21:33;100621.88;;;5.86
45034;BMP280;30771;47.988;-4.186;2023-02-28T21:23:59;100615.00;;;5.84
45034;BMP280;30771;47.988;-4.186;2023-02-28T21:26:26;100605.38;;;5.85
45034;BMP280;30771;47.988;-4.186;2023-02-28T21:28:52;100595.59;;;5.87
45034;BMP280;30771;47.988;-4.186;2023-02-28T21:31:18;100591.19;;;5.88
45034;BMP280;30771;47.988;-4.186;2023-02-28T21:33:44;100564.09;;;5.89
45034;BMP280;30771;47.988;-4.186;2023-02-28T21:36:13;100563.25;;;5.88
45034;BMP280;30771;47.988;-4.186;2023-02-28T21:38:38;100547.59;;;5.88
45034;BMP280;30771;47.988;-4.186;2023-02-28T21:43:29;100521.16;;;5.83
45034;BMP280;30771;47.988;-4.186;2023-02-28T21:45:54;100504.81;;;5.81
45034;BMP280;30771;47.988;-4.186;2023-02-28T21:48:20;100499.75;;;5.79
45034;BMP280;30771;47.988;-4.186;2023-02-28T21:50:53;100479.84;;;5.78
45034;BMP280;30771;47.988;-4.186;2023-02-28T21:53:18;100465.31;;;5.76
45034;BMP280;30771;47.988;-4.186;2023-02-28T21:55:43;100460.25;;;5.74
45034;BMP280;30771;47.988;-4.186;2023-02-28T21:58:09;100458.44;;;5.75
45034;BMP280;30771;47.988;-4.186;2023-02-28T22:00:34;100452.25;;;5.76
45034;BMP280;30771;47.988;-4.186;2023-02-28T22:02:59;100458.28;;;5.76
45034;BMP280;30771;47.988;-4.186;2023-02-28T22:05:24;100460.72;;;5.78
45034;BMP280;30771;47.988;-4.186;2023-02-28T22:07:49;100472.81;;;5.79
45034;BMP280;30771;47.988;-4.186;2023-02-28T22:10:14;100494.38;;;5.81
45034;BMP280;30771;47.988;-4.186;2023-02-28T22:12:40;100502.50;;;5.86
45034;BMP280;30771;47.988;-4.186;2023-02-28T22:15:05;100530.94;;;5.89
45034;BMP280;30771;47.988;-4.186;2023-02-28T22:17:30;100553.31;;;5.59
45034;BMP280;30771;47.988;-4.186;2023-02-28T22:19:56;100560.41;;;5.17
45034;BMP280;30771;47.988;-4.186;2023-02-28T22:22:21;100601.69;;;4.80
45034;BMP280;30771;47.988;-4.186;2023-02-28T22:24:46;100617.78;;;4.50
45034;BMP280;30771;47.988;-4.186;2023-02-28T22:27:11;100608.97;;;4.25
45034;BMP280;30771;47.988;-4.186;2023-02-28T22:29:36;100599.72;;;4.05
45034;BMP280;30771;47.988;-4.186;2023-02-28T22:32:02;100595.69;;;3.93
45034;BMP280;30771;47.988;-4.186;2023-02-28T22:34:27;100583.09;;;3.88